Time;durP1;ratioP1;P1;durP2;ratioP2;P2;SDS_P1;SDS_P2;PMS_P1;PMS_P2;Temp;Humidity;BMP_temperature;BMP_pressure;BME280_temperature;BME280_humidity;BME280_pressure;Samples;Min_cycle;Max_cycle;Signal;HPM_P1;HPM_P2
2022/09/18 00:01:10;;;;;;;7.78;5.03;;;12.60;99.90;;;;;;5077447;28;20219;-89
2022/09/18 00:04:00;;;;;;;6.43;5.00;;;12.60;99.90;;;;;;5082375;28;20227;-88
2022/09/18 00:06:49;;;;;;;8.57;5.30;;;12.60;99.90;;;;;;5087834;28;20256;-86
2022/09/18 00:09:38;;;;;;;7.28;5.55;;;12.60;99.90;;;;;;5065736;28;20246;-89
2022/09/18 00:12:28;;;;;;;8.13;5.05;;;12.70;99.90;;;;;;5081631;28;20223;-88
2022/09/18 00:15:17;;;;;;;7.07;5.18;;;12.60;99.90;;;;;;5068204;28;20326;-88
2022/09/18 00:18:07;;;;;;;6.80;4.80;;;12.70;99.90;;;;;;5086212;28;20215;-87
2022/09/18 00:20:55;;;;;;;7.65;5.78;;;12.70;99.90;;;;;;5075765;28;20238;-87
2022/09/18 00:23:45;;;;;;;8.05;5.28;;;12.60;99.90;;;;;;5083201;28;20223;-88
2022/09/18 00:26:34;;;;;;;9.68;5.75;;;12.50;99.90;;;;;;5080279;28;20249;-87
2022/09/18 00:29:24;;;;;;;7.07;5.22;;;12.70;99.90;;;;;;5078497;28;20250;-87
2022/09/18 00:32:13;;;;;;;7.05;5.30;;;12.60;99.90;;;;;;5080530;28;20543;-86
2022/09/18 00:35:02;;;;;;;8.32;5.22;;;12.70;99.90;;;;;;5074270;28;20239;-86
2022/09/18 00:37:50;;;;;;;9.27;6.05;;;12.60;99.90;;;;;;5084019;28;20243;-87
2022/09/18 00:40:39;;;;;;;9.65;4.95;;;12.70;99.90;;;;;;5083326;28;20296;-85
2022/09/18 00:43:31;;;;;;;8.20;5.97;;;12.70;99.90;;;;;;5077104;28;20946;-88
2022/09/18 00:46:26;;;;;;;8.38;5.85;;;12.60;99.90;;;;;;5077590;28;20254;-87
2022/09/18 00:49:18;;;;;;;8.27;5.85;;;12.60;99.90;;;;;;5078509;28;20227;-87
2022/09/18 00:52:07;;;;;;;9.95;5.68;;;12.70;99.90;;;;;;5079803;28;20326;-85
2022/09/18 00:55:01;;;;;;;9.20;6.03;;;12.60;99.90;;;;;;5064397;28;20227;-87
2022/09/18 00:57:53;;;;;;;7.75;5.35;;;12.50;99.90;;;;;;5068082;28;20215;-86
2022/09/18 01:00:42;;;;;;;9.93;6.20;;;12.50;99.90;;;;;;5075851;28;20215;-87
2022/09/18 01:03:32;;;;;;;11.05;5.97;;;12.60;99.90;;;;;;5079180;28;20235;-88
2022/09/18 01:06:29;;;;;;;8.43;6.07;;;12.50;99.90;;;;;;5077067;28;20228;-90
2022/09/18 01:09:26;;;;;;;9.73;5.72;;;12.60;99.90;;;;;;5063972;28;20598;-89
2022/09/18 01:12:24;;;;;;;9.13;5.53;;;12.70;99.90;;;;;;5064630;28;20223;-90
2022/09/18 01:15:21;;;;;;;7.82;5.45;;;12.70;99.90;;;;;;5067535;28;20849;-91
2022/09/18 01:18:20;;;;;;;9.32;5.95;;;12.60;99.90;;;;;;5084933;28;20235;-87
2022/09/18 01:21:13;;;;;;;9.73;5.75;;;12.70;99.90;;;;;;5083082;28;20724;-90
2022/09/18 01:24:32;;;;;;;8.35;5.65;;;12.60;99.90;;;;;;5067485;28;20223;-87
2022/09/18 01:27:30;;;;;;;9.73;6.68;;;12.60;99.90;;;;;;5060266;28;20330;-89
2022/09/18 01:30:20;;;;;;;10.50;6.35;;;12.60;99.90;;;;;;5064436;28;20284;-87
2022/09/18 01:33:15;;;;;;;9.35;5.55;;;12.70;99.90;;;;;;5077297;28;20535;-85
2022/09/18 01:36:08;;;;;;;10.73;6.10;;;12.60;99.90;;;;;;5069938;28;20231;-90
2022/09/18 01:39:02;;;;;;;10.13;5.85;;;12.70;99.90;;;;;;5079370;28;20220;-86
2022/09/18 01:41:53;;;;;;;9.05;5.80;;;12.70;99.90;;;;;;5080431;28;20246;-89
2022/09/18 01:44:44;;;;;;;9.80;6.20;;;12.70;99.90;;;;;;5081638;28;20216;-86
2022/09/18 01:47:39;;;;;;;11.45;6.28;;;12.70;99.90;;;;;;5077284;28;20275;-88
2022/09/18 01:50:34;;;;;;;10.23;6.20;;;12.60;99.90;;;;;;5055729;28;20264;-87
2022/09/18 01:53:27;;;;;;;12.52;6.15;;;12.60;99.90;;;;;;5067830;28;20267;-89
2022/09/18 01:56:21;;;;;;;8.68;5.78;;;12.60;99.90;;;;;;5059956;28;20234;-90
2022/09/18 01:59:15;;;;;;;8.35;5.70;;;12.60;99.90;;;;;;5067697;28;20216;-87
2022/09/18 02:02:15;;;;;;;14.55;6.75;;;12.60;99.90;;;;;;5066853;28;20223;-87
2022/09/18 02:05:10;;;;;;;8.70;6.10;;;12.70;99.90;;;;;;5070655;28;21154;-89
2022/09/18 02:08:06;;;;;;;10.02;5.45;;;12.70;99.90;;;;;;5055526;28;20226;-89
2022/09/18 02:10:59;;;;;;;8.80;5.65;;;12.70;99.90;;;;;;5066064;28;21016;-91
2022/09/18 02:13:53;;;;;;;8.98;5.03;;;12.70;99.90;;;;;;5061372;28;20227;-87
2022/09/18 02:16:53;;;;;;;9.32;5.25;;;12.60;99.90;;;;;;5070806;28;20219;-87
2022/09/18 02:19:45;;;;;;;11.05;5.70;;;12.70;99.90;;;;;;5073359;28;20236;-89
2022/09/18 02:22:35;;;;;;;10.95;5.60;;;12.70;99.90;;;;;;5069265;28;20223;-88
2022/09/18 02:25:29;;;;;;;12.68;6.03;;;12.60;99.90;;;;;;5071435;28;20378;-90
2022/09/18 02:28:21;;;;;;;8.45;5.45;;;12.60;99.90;;;;;;5071889;28;20303;-89
2022/09/18 02:31:15;;;;;;;11.77;5.90;;;12.60;99.90;;;;;;5073617;28;20224;-90
2022/09/18 02:34:07;;;;;;;11.63;6.60;;;12.50;99.90;;;;;;5070431;28;20920;-91
2022/09/18 02:37:08;;;;;;;12.18;5.88;;;12.60;99.90;;;;;;5075872;28;20226;-87
2022/09/18 02:40:08;;;;;;;11.15;5.97;;;12.60;99.90;;;;;;5061163;28;20233;-88
2022/09/18 02:43:12;;;;;;;13.05;6.35;;;12.60;99.90;;;;;;5058633;28;20216;-90
2022/09/18 02:46:13;;;;;;;11.13;5.80;;;12.60;99.90;;;;;;5072967;28;21007;-89
2022/09/18 02:49:09;;;;;;;12.55;6.32;;;12.60;99.90;;;;;;5059367;28;20220;-89
2022/09/18 02:52:04;;;;;;;11.02;6.15;;;12.60;99.90;;;;;;5078988;28;20219;-93
2022/09/18 02:54:57;;;;;;;12.95;6.22;;;12.60;99.90;;;;;;5084414;28;20231;-91
2022/09/18 02:57:53;;;;;;;14.75;7.03;;;12.60;99.90;;;;;;5071021;28;20227;-87
2022/09/18 03:00:43;;;;;;;18.30;6.78;;;12.60;99.90;;;;;;5086884;28;20242;-89
2022/09/18 03:03:38;;;;;;;11.82;7.20;;;12.60;99.90;;;;;;5072453;28;20238;-88
2022/09/18 03:06:29;;;;;;;9.95;6.63;;;12.60;99.90;;;;;;5074081;28;20249;-86
2022/09/18 03:09:18;;;;;;;13.77;7.13;;;12.60;99.90;;;;;;5087373;28;20243;-87
2022/09/18 03:12:08;;;;;;;11.82;7.28;;;12.60;99.90;;;;;;5069074;28;20215;-87
2022/09/18 03:15:09;;;;;;;13.43;6.80;;;12.60;99.90;;;;;;5069053;28;21006;-88
2022/09/18 03:17:58;;;;;;;13.32;7.03;;;12.50;99.90;;;;;;5090790;28;20215;-86
2022/09/18 03:20:47;;;;;;;13.55;7.80;;;12.60;99.90;;;;;;5064035;28;20227;-85
2022/09/18 03:23:35;;;;;;;11.63;7.25;;;12.50;99.90;;;;;;5079234;28;20224;-85
2022/09/18 03:26:34;;;;;;;15.60;7.50;;;12.60;99.90;;;;;;5063664;28;20223;-84
2022/09/18 03:29:23;;;;;;;13.10;7.28;;;12.70;99.90;;;;;;5063083;28;20269;-86
2022/09/18 03:32:14;;;;;;;15.05;7.88;;;12.60;99.90;;;;;;5062581;28;20231;-84
2022/09/18 03:35:07;;;;;;;15.80;7.88;;;12.50;99.90;;;;;;5072912;28;20230;-83
2022/09/18 03:37:57;;;;;;;15.20;8.25;;;12.60;99.90;;;;;;5079344;28;21132;-85
2022/09/18 03:40:49;;;;;;;15.35;8.00;;;12.60;99.90;;;;;;5081929;28;20327;-84
2022/09/18 03:43:38;;;;;;;16.92;8.40;;;12.70;99.90;;;;;;5079748;28;20223;-85
2022/09/18 03:46:27;;;;;;;13.75;8.25;;;12.60;99.90;;;;;;5064957;28;20278;-84
2022/09/18 03:49:24;;;;;;;17.08;8.80;;;12.70;99.90;;;;;;5064045;28;20235;-86
2022/09/18 03:52:15;;;;;;;16.38;9.10;;;12.70;99.90;;;;;;5073471;28;20956;-83
2022/09/18 03:55:11;;;;;;;12.50;9.15;;;12.70;99.90;;;;;;5064955;28;20674;-83
2022/09/18 03:58:26;;;;;;;15.80;9.40;;;12.70;99.90;;;;;;5083130;28;20243;-85
2022/09/18 04:01:38;;;;;;;12.52;8.70;;;12.70;99.90;;;;;;5078447;28;20235;-85
2022/09/18 04:04:46;;;;;;;13.23;8.77;;;12.70;99.90;;;;;;5081452;28;20212;-87
2022/09/18 04:07:38;;;;;;;14.10;8.43;;;12.70;99.90;;;;;;5078772;28;20227;-90
2022/09/18 04:11:03;;;;;;;17.25;9.25;;;12.60;99.90;;;;;;5087558;28;20303;-90
2022/09/18 04:13:53;;;;;;;14.57;8.63;;;12.60;99.90;;;;;;5067857;28;20223;-87
2022/09/18 04:16:42;;;;;;;14.00;8.68;;;12.60;99.90;;;;;;5082087;28;20531;-86
2022/09/18 04:19:31;;;;;;;16.52;8.60;;;12.70;99.90;;;;;;5077160;28;20837;-86
2022/09/18 04:22:21;;;;;;;17.38;8.73;;;12.70;99.90;;;;;;5081367;28;20224;-87
2022/09/18 04:25:10;;;;;;;14.20;8.68;;;12.70;99.90;;;;;;5083923;28;20866;-85
2022/09/18 04:28:00;;;;;;;18.10;8.77;;;12.70;99.90;;;;;;5067001;28;20306;-85
2022/09/18 04:30:49;;;;;;;13.50;7.75;;;12.70;99.90;;;;;;5068910;28;20690;-88
2022/09/18 04:33:37;;;;;;;15.43;7.20;;;12.70;99.90;;;;;;5068074;28;20226;-86
2022/09/18 04:36:28;;;;;;;14.32;7.90;;;12.70;99.90;;;;;;5068340;28;20883;-87
2022/09/18 04:39:18;;;;;;;16.70;7.50;;;12.70;99.90;;;;;;5065479;28;20307;-85
2022/09/18 04:42:07;;;;;;;15.98;7.53;;;12.70;99.90;;;;;;5065866;28;20473;-88
2022/09/18 04:44:56;;;;;;;16.40;7.47;;;12.70;99.90;;;;;;5068675;28;20299;-88
2022/09/18 04:47:45;;;;;;;11.32;7.75;;;12.80;99.90;;;;;;5079096;28;20224;-87
2022/09/18 04:50:34;;;;;;;17.50;8.07;;;12.80;99.90;;;;;;5068033;28;20234;-87
2022/09/18 04:53:27;;;;;;;12.65;7.68;;;12.70;99.90;;;;;;5076912;28;20238;-85
2022/09/18 04:56:18;;;;;;;10.90;7.57;;;12.80;99.90;;;;;;5063871;28;20228;-89
2022/09/18 04:59:10;;;;;;;13.27;7.93;;;12.90;99.90;;;;;;5078834;28;20227;-85
2022/09/18 05:02:03;;;;;;;18.45;8.60;;;12.90;99.90;;;;;;5068196;28;20715;-85
2022/09/18 05:04:52;;;;;;;27.13;10.55;;;12.80;99.90;;;;;;5065915;28;20223;-87
2022/09/18 05:07:50;;;;;;;18.65;9.13;;;12.80;99.90;;;;;;5065831;28;20224;-85
2022/09/18 05:10:39;;;;;;;17.15;9.13;;;12.80;99.90;;;;;;5062915;28;20270;-88
2022/09/18 05:13:29;;;;;;;19.92;10.25;;;12.80;99.90;;;;;;5077855;28;20253;-88
2022/09/18 05:16:24;;;;;;;15.32;8.82;;;12.70;99.90;;;;;;5083821;28;20223;-87
2022/09/18 05:19:33;;;;;;;16.25;9.18;;;12.70;99.90;;;;;;5078041;28;20215;-86
2022/09/18 05:22:26;;;;;;;18.08;9.10;;;12.70;99.90;;;;;;5083027;28;20220;-86
2022/09/18 05:25:15;;;;;;;16.45;9.02;;;12.70;99.90;;;;;;5082371;28;20219;-86
2022/09/18 05:28:05;;;;;;;16.25;8.15;;;12.70;99.90;;;;;;5082265;28;20216;-87
2022/09/18 05:31:04;;;;;;;18.05;9.52;;;12.80;99.90;;;;;;5072593;28;20215;-89
2022/09/18 05:34:00;;;;;;;18.30;8.80;;;12.70;99.90;;;;;;5073110;28;20216;-90
2022/09/18 05:36:49;;;;;;;20.63;8.73;;;12.70;99.90;;;;;;5084602;28;20216;-90
2022/09/18 05:39:37;;;;;;;15.82;8.63;;;12.70;99.90;;;;;;5083667;28;20695;-89
2022/09/18 05:42:26;;;;;;;12.63;7.95;;;12.70;99.90;;;;;;5068797;28;20293;-90
2022/09/18 05:45:19;;;;;;;17.98;8.50;;;12.70;99.90;;;;;;5086154;28;20262;-90
2022/09/18 05:48:12;;;;;;;17.17;8.98;;;12.60;99.90;;;;;;5070629;28;20212;-89
2022/09/18 05:51:00;;;;;;;13.48;8.68;;;12.60;99.90;;;;;;5064409;28;21041;-87
2022/09/18 05:53:49;;;;;;;15.10;8.10;;;12.60;99.90;;;;;;5063608;28;20236;-89
2022/09/18 05:56:45;;;;;;;16.67;9.30;;;12.70;99.90;;;;;;5053607;28;20224;-90
2022/09/18 05:59:34;;;;;;;17.15;8.82;;;12.60;99.90;;;;;;5061846;28;20221;-89
2022/09/18 06:02:23;;;;;;;13.02;8.70;;;12.50;99.90;;;;;;5062993;28;20235;-86
2022/09/18 06:05:30;;;;;;;18.23;8.57;;;12.50;99.90;;;;;;5061811;28;20224;-86
2022/09/18 06:08:20;;;;;;;13.60;8.50;;;12.70;99.90;;;;;;5061402;28;20710;-87
2022/09/18 06:11:09;;;;;;;14.15;8.68;;;12.60;99.90;;;;;;5061584;28;20975;-88
2022/09/18 06:13:57;;;;;;;13.88;8.18;;;12.50;99.90;;;;;;5071729;28;20604;-85
2022/09/18 06:16:47;;;;;;;14.50;8.73;;;12.60;99.90;;;;;;5076300;28;20219;-86
2022/09/18 06:19:35;;;;;;;15.40;8.50;;;12.60;99.90;;;;;;5063117;28;20235;-87
2022/09/18 06:22:25;;;;;;;13.07;7.07;;;12.50;99.90;;;;;;5069320;28;20231;-86
2022/09/18 06:25:18;;;;;;;13.95;7.55;;;12.50;99.90;;;;;;5048149;28;20234;-87
2022/09/18 06:28:07;;;;;;;14.15;6.47;;;12.50;99.90;;;;;;5046475;28;20231;-86
2022/09/18 06:30:55;;;;;;;11.32;6.30;;;12.60;99.90;;;;;;5045980;28;21451;-86
2022/09/18 06:33:44;;;;;;;9.43;5.53;;;12.60;99.90;;;;;;5061909;28;20254;-86
2022/09/18 06:36:33;;;;;;;8.27;6.15;;;12.50;99.90;;;;;;5047136;28;20287;-85
2022/09/18 06:39:39;;;;;;;9.80;6.45;;;12.50;99.90;;;;;;5059830;28;20219;-86
2022/09/18 06:42:30;;;;;;;8.77;6.35;;;12.40;99.90;;;;;;5046558;28;20711;-87
2022/09/18 06:45:35;;;;;;;11.90;5.80;;;12.50;99.90;;;;;;5058443;28;20590;-87
2022/09/18 06:48:28;;;;;;;9.00;5.60;;;12.50;99.90;;;;;;5048998;28;20228;-86
2022/09/18 06:51:18;;;;;;;7.97;5.30;;;12.60;99.90;;;;;;5070011;28;20266;-87
2022/09/18 06:54:29;;;;;;;7.40;5.50;;;12.60;99.90;;;;;;5059248;28;20228;-88
2022/09/18 06:57:20;;;;;;;7.47;5.38;;;12.50;99.90;;;;;;5063799;28;20224;-89
2022/09/18 07:00:10;;;;;;;7.63;5.22;;;12.50;99.90;;;;;;5061790;28;20235;-88
2022/09/18 07:03:00;;;;;;;8.07;5.65;;;12.50;99.90;;;;;;5053618;28;20220;-86
2022/09/18 07:05:55;;;;;;;7.57;4.72;;;12.50;99.90;;;;;;5068605;28;20236;-88
2022/09/18 07:08:58;;;;;;;8.02;4.68;;;12.50;99.90;;;;;;5073628;28;20369;-86
2022/09/18 07:12:24;;;;;;;7.05;5.00;;;12.40;99.90;;;;;;5064619;28;20281;-87
2022/09/18 07:15:15;;;;;;;7.97;4.63;;;12.30;99.90;;;;;;5066418;28;20311;-89
2022/09/18 07:18:05;;;;;;;7.10;4.47;;;12.40;99.90;;;;;;5063502;28;20220;-89
2022/09/18 07:20:54;;;;;;;5.53;4.18;;;12.20;99.90;;;;;;5063850;28;20235;-88
2022/09/18 07:23:53;;;;;;;6.38;4.63;;;12.30;99.90;;;;;;5063037;28;20311;-86
2022/09/18 07:26:42;;;;;;;7.80;4.70;;;12.30;99.90;;;;;;5062364;28;20216;-87
2022/09/18 07:29:32;;;;;;;7.03;4.10;;;12.30;99.90;;;;;;5054868;28;20220;-85
2022/09/18 07:32:21;;;;;;;7.18;4.28;;;12.20;99.90;;;;;;5059972;28;20233;-87
2022/09/18 07:35:11;;;;;;;8.25;4.03;;;12.20;99.90;;;;;;5061009;28;20216;-85
2022/09/18 07:38:00;;;;;;;8.27;4.13;;;12.20;99.90;;;;;;5063703;28;20224;-89
2022/09/18 07:41:04;;;;;;;7.47;4.30;;;12.40;99.90;;;;;;5058112;28;20216;-85
2022/09/18 07:43:54;;;;;;;9.05;4.53;;;12.40;99.90;;;;;;5062284;28;20239;-87
2022/09/18 07:46:45;;;;;;;8.27;4.22;;;12.30;99.90;;;;;;5064414;28;20301;-86
2022/09/18 07:49:36;;;;;;;5.95;3.95;;;12.30;99.90;;;;;;5078048;28;20224;-84
2022/09/18 07:52:27;;;;;;;7.15;4.07;;;12.30;99.90;;;;;;5054727;28;20307;-85
2022/09/18 07:55:18;;;;;;;6.15;4.15;;;12.30;99.90;;;;;;5051117;28;20306;-87
2022/09/18 07:58:07;;;;;;;6.80;4.40;;;12.30;99.90;;;;;;5067272;28;20227;-84
2022/09/18 08:01:33;;;;;;;6.80;4.43;;;12.30;99.90;;;;;;5064022;28;20231;-84
2022/09/18 08:04:26;;;;;;;9.45;5.40;;;12.20;99.90;;;;;;5048985;28;20818;-85
2022/09/18 08:07:47;;;;;;;8.95;5.88;;;12.20;99.90;;;;;;5061708;28;20231;-86
2022/09/18 08:11:02;;;;;;;8.10;6.25;;;12.10;99.90;;;;;;5053800;28;20227;-84
2022/09/18 08:14:09;;;;;;;9.27;6.55;;;12.10;99.90;;;;;;5066864;28;20226;-84
2022/09/18 08:17:04;;;;;;;9.20;6.47;;;12.10;99.90;;;;;;5055964;28;20211;-85
2022/09/18 08:20:01;;;;;;;10.75;7.10;;;12.10;99.90;;;;;;5055394;28;20357;-86
2022/09/18 08:23:16;;;;;;;13.52;6.85;;;12.10;99.90;;;;;;5069937;28;20695;-85
2022/09/18 08:26:05;;;;;;;10.65;6.28;;;12.00;99.90;;;;;;5066139;28;20224;-90
2022/09/18 08:28:54;;;;;;;8.48;6.93;;;12.00;99.90;;;;;;5078159;28;20216;-87
2022/09/18 08:31:43;;;;;;;10.00;6.38;;;12.10;99.90;;;;;;5068478;28;20223;-86
2022/09/18 08:34:32;;;;;;;12.23;6.75;;;12.20;99.90;;;;;;5052462;28;20730;-86
2022/09/18 08:37:22;;;;;;;9.02;5.15;;;12.20;99.90;;;;;;5061430;28;20311;-84
2022/09/18 08:40:48;;;;;;;9.75;5.95;;;12.20;99.90;;;;;;5065843;28;20228;-84
2022/09/18 08:43:56;;;;;;;7.95;5.20;;;12.30;99.90;;;;;;5054850;28;20595;-87
2022/09/18 08:46:49;;;;;;;8.75;5.38;;;12.40;99.90;;;;;;5066283;28;20231;-84
2022/09/18 08:49:45;;;;;;;11.23;5.63;;;12.50;99.90;;;;;;5064165;28;20231;-86
2022/09/18 08:52:40;;;;;;;9.90;5.20;;;12.40;99.90;;;;;;5077444;28;20232;-83
2022/09/18 08:55:42;;;;;;;9.77;5.50;;;12.60;99.90;;;;;;5067805;28;20827;-85
2022/09/18 08:58:51;;;;;;;11.57;5.13;;;12.50;99.90;;;;;;5061171;28;20350;-85
2022/09/18 09:01:47;;;;;;;10.00;5.25;;;12.70;99.90;;;;;;5050710;28;20743;-84
2022/09/18 09:04:36;;;;;;;10.55;5.40;;;12.60;99.90;;;;;;5061838;28;20389;-84
2022/09/18 09:07:42;;;;;;;9.20;5.03;;;12.70;99.90;;;;;;5040655;28;20595;-86
2022/09/18 09:10:53;;;;;;;8.30;5.22;;;12.70;99.90;;;;;;5063113;28;21156;-87
2022/09/18 09:14:09;;;;;;;10.50;4.97;;;12.80;99.90;;;;;;5040434;28;20224;-88
2022/09/18 09:17:05;;;;;;;9.77;5.72;;;12.80;99.90;;;;;;5043487;28;20263;-84
2022/09/18 09:20:04;;;;;;;12.40;4.93;;;12.80;99.90;;;;;;5045679;28;20227;-82
2022/09/18 09:23:02;;;;;;;7.70;5.40;;;13.00;99.90;;;;;;5044341;28;20227;-85
2022/09/18 09:26:02;;;;;;;8.70;5.00;;;13.10;99.90;;;;;;5044592;28;20290;-84
2022/09/18 09:29:12;;;;;;;9.98;4.82;;;13.20;99.90;;;;;;5051861;28;20341;-87
2022/09/18 09:32:24;;;;;;;8.73;5.15;;;13.20;99.90;;;;;;5061772;28;20247;-85
2022/09/18 09:35:35;;;;;;;6.25;4.30;;;13.40;99.90;;;;;;5054070;28;20348;-87
2022/09/18 09:38:39;;;;;;;7.22;4.90;;;13.50;99.90;;;;;;5064372;28;20228;-85
2022/09/18 09:41:35;;;;;;;7.22;4.90;;;13.50;99.90;;;;;;5047087;28;20254;-83
2022/09/18 09:44:34;;;;;;;8.35;4.78;;;13.90;99.90;;;;;;5063566;28;20232;-86
2022/09/18 09:47:30;;;;;;;7.32;4.28;;;13.90;99.90;;;;;;5044342;28;20216;-84
2022/09/18 09:50:33;;;;;;;7.95;4.40;;;14.10;99.90;;;;;;5065302;28;20231;-86
2022/09/18 09:53:28;;;;;;;9.23;4.53;;;14.20;99.90;;;;;;5064560;28;20235;-86
2022/09/18 09:56:29;;;;;;;7.32;3.65;;;14.30;99.90;;;;;;5051684;28;20251;-82
2022/09/18 09:59:26;;;;;;;7.35;4.10;;;14.40;99.90;;;;;;5047608;28;20223;-81
2022/09/18 10:03:01;;;;;;;6.35;3.38;;;14.50;99.90;;;;;;5062132;28;20222;-83
2022/09/18 10:06:04;;;;;;;5.25;3.38;;;14.60;99.90;;;;;;5059122;28;20355;-83
2022/09/18 10:08:58;;;;;;;8.18;3.80;;;14.70;99.90;;;;;;5071701;28;20853;-82
2022/09/18 10:11:55;;;;;;;8.23;3.50;;;14.50;99.90;;;;;;5066364;28;20896;-86
2022/09/18 10:14:48;;;;;;;7.00;3.25;;;14.60;99.90;;;;;;5078812;28;20864;-84
2022/09/18 10:17:40;;;;;;;7.95;3.30;;;14.80;99.90;;;;;;5078671;28;20992;-82
2022/09/18 10:20:31;;;;;;;5.97;3.28;;;14.80;99.90;;;;;;5068390;28;20246;-80
2022/09/18 10:23:24;;;;;;;5.90;3.30;;;14.80;99.90;;;;;;5072368;28;20235;-82
2022/09/18 10:26:26;;;;;;;5.72;3.40;;;14.80;99.90;;;;;;5060485;28;20226;-84
2022/09/18 10:29:18;;;;;;;5.55;3.10;;;14.80;99.90;;;;;;5073643;28;20224;-79
2022/09/18 10:32:32;;;;;;;7.35;3.45;;;14.80;99.90;;;;;;5058077;28;20283;-82
2022/09/18 10:35:44;;;;;;;6.07;3.45;;;15.00;99.90;;;;;;5060560;28;20219;-84
2022/09/18 10:38:36;;;;;;;9.57;3.30;;;15.10;99.90;;;;;;5074446;28;20369;-82
2022/09/18 10:41:44;;;;;;;6.43;3.20;;;15.10;99.90;;;;;;5060673;28;20255;-85
2022/09/18 10:44:37;;;;;;;5.65;3.00;;;15.00;99.90;;;;;;5064072;28;20215;-84
2022/09/18 10:47:33;;;;;;;5.93;3.05;;;15.10;99.90;;;;;;5078956;28;20224;-84
2022/09/18 10:50:22;;;;;;;8.43;3.50;;;15.10;99.90;;;;;;5076378;28;20223;-84
2022/09/18 10:53:27;;;;;;;6.15;3.10;;;15.30;99.90;;;;;;5079861;28;20235;-84
2022/09/18 10:56:18;;;;;;;5.68;3.15;;;15.20;99.90;;;;;;5079254;28;20222;-84
2022/09/18 10:59:36;;;;;;;7.78;3.17;;;15.40;99.90;;;;;;5077819;28;20215;-84
2022/09/18 11:02:26;;;;;;;7.57;3.40;;;15.40;99.90;;;;;;5065885;28;20692;-84
2022/09/18 11:05:17;;;;;;;5.28;3.25;;;15.30;99.90;;;;;;5081421;28;20268;-84
2022/09/18 11:08:16;;;;;;;5.65;3.67;;;15.20;99.90;;;;;;5066128;28;20650;-84
2022/09/18 11:11:10;;;;;;;4.38;2.90;;;15.40;99.90;;;;;;5080272;28;20919;-84
2022/09/18 11:14:02;;;;;;;6.03;3.25;;;15.20;99.90;;;;;;5080400;28;20269;-85
2022/09/18 11:17:02;;;;;;;5.15;2.70;;;15.30;99.90;;;;;;5081748;28;20231;-85
2022/09/18 11:20:03;;;;;;;7.18;3.00;;;15.20;99.90;;;;;;5065905;28;20365;-84
2022/09/18 11:23:22;;;;;;;4.10;3.25;;;15.20;99.90;;;;;;5079406;28;20223;-84
2022/09/18 11:26:19;;;;;;;7.93;3.22;;;15.10;99.90;;;;;;5065748;28;20222;-84
2022/09/18 11:29:21;;;;;;;6.97;3.30;;;15.10;99.90;;;;;;5063989;28;20227;-83
2022/09/18 11:32:18;;;;;;;5.75;3.40;;;15.40;99.90;;;;;;5071492;28;20817;-84
2022/09/18 11:35:15;;;;;;;6.03;3.13;;;15.50;99.90;;;;;;5077552;28;20341;-84
2022/09/18 11:38:07;;;;;;;8.23;3.15;;;15.40;99.90;;;;;;5078366;28;20222;-85
2022/09/18 11:41:00;;;;;;;5.53;2.78;;;15.30;99.90;;;;;;5065963;28;20774;-84
2022/09/18 11:44:00;;;;;;;6.07;2.90;;;15.40;99.90;;;;;;5079528;28;20759;-83
2022/09/18 11:47:03;;;;;;;4.65;2.92;;;15.40;99.90;;;;;;5080744;28;20318;-84
2022/09/18 11:50:02;;;;;;;3.65;2.72;;;15.50;99.90;;;;;;5055563;28;20224;-82
2022/09/18 11:52:54;;;;;;;7.03;2.78;;;15.30;99.90;;;;;;5065288;28;20212;-84
2022/09/18 11:55:48;;;;;;;4.93;2.53;;;15.30;99.90;;;;;;5052139;28;20224;-84
2022/09/18 11:58:43;;;;;;;5.00;2.67;;;15.30;99.90;;;;;;5057497;28;20216;-83
2022/09/18 12:01:41;;;;;;;4.30;2.50;;;15.30;99.90;;;;;;5057574;28;20938;-82
2022/09/18 12:04:40;;;;;;;3.60;2.47;;;15.30;99.90;;;;;;5056198;28;20269;-83
2022/09/18 12:07:35;;;;;;;4.72;2.65;;;15.40;99.90;;;;;;5054444;28;20216;-83
2022/09/18 12:10:45;;;;;;;4.65;2.45;;;15.40;99.90;;;;;;5058958;28;20251;-83
2022/09/18 12:13:45;;;;;;;4.43;2.63;;;15.30;99.90;;;;;;5051181;28;20314;-84
2022/09/18 12:16:43;;;;;;;4.70;2.72;;;15.30;99.90;;;;;;5069737;28;20224;-82
2022/09/18 12:19:40;;;;;;;5.18;2.55;;;15.30;99.90;;;;;;5061724;28;20263;-83
2022/09/18 12:22:41;;;;;;;5.50;2.85;;;15.30;99.90;;;;;;5069283;28;20883;-82
2022/09/18 12:25:41;;;;;;;4.75;2.40;;;15.40;99.90;;;;;;5054001;28;20235;-83
2022/09/18 12:28:44;;;;;;;5.95;3.17;;;15.50;99.90;;;;;;5052641;28;20219;-83
2022/09/18 12:31:42;;;;;;;4.55;2.65;;;15.50;99.90;;;;;;5056301;28;20227;-82
2022/09/18 12:34:38;;;;;;;4.80;2.22;;;15.40;99.90;;;;;;5052525;28;20254;-82
2022/09/18 12:37:52;;;;;;;5.07;2.70;;;15.30;99.90;;;;;;5056891;28;20266;-83
2022/09/18 12:41:05;;;;;;;5.25;2.50;;;15.30;99.90;;;;;;5067635;28;20258;-82
2022/09/18 12:44:18;;;;;;;6.10;2.67;;;15.30;99.90;;;;;;5056946;28;21056;-83
2022/09/18 12:47:26;;;;;;;4.38;2.97;;;15.20;99.90;;;;;;5064481;28;20248;-84
2022/09/18 12:50:38;;;;;;;3.10;2.53;;;15.10;99.90;;;;;;5069711;28;20258;-83
2022/09/18 12:53:44;;;;;;;7.47;2.92;;;15.10;99.90;;;;;;5078034;28;20231;-84
2022/09/18 12:56:48;;;;;;;4.32;2.67;;;14.90;99.90;;;;;;5077130;28;20227;-83
2022/09/18 12:59:54;;;;;;;4.82;2.75;;;14.90;99.90;;;;;;5078430;28;20234;-82
2022/09/18 13:02:50;;;;;;;5.10;2.70;;;14.90;99.90;;;;;;5078351;28;20223;-82
2022/09/18 13:05:43;;;;;;;6.47;2.40;;;14.90;99.90;;;;;;5078715;28;20250;-84
2022/09/18 13:08:37;;;;;;;7.97;2.55;;;14.90;99.90;;;;;;5076983;28;20228;-83
2022/09/18 13:11:32;;;;;;;8.90;2.67;;;14.90;99.90;;;;;;5064191;28;20223;-83
2022/09/18 13:14:25;;;;;;;5.75;2.40;;;14.90;99.90;;;;;;5077752;28;20224;-84
2022/09/18 13:17:18;;;;;;;5.20;2.60;;;14.90;99.90;;;;;;5076418;28;20234;-82
2022/09/18 13:20:16;;;;;;;3.85;2.17;;;14.90;99.90;;;;;;5077445;28;20227;-82
2022/09/18 13:23:06;;;;;;;3.80;2.60;;;14.90;99.90;;;;;;5080054;28;20314;-82
2022/09/18 13:25:57;;;;;;;7.20;3.13;;;15.00;99.90;;;;;;5080942;28;20234;-83
2022/09/18 13:28:46;;;;;;;4.20;2.30;;;15.10;99.90;;;;;;5078306;28;21024;-82
2022/09/18 13:31:36;;;;;;;3.95;2.30;;;15.00;99.90;;;;;;5072656;28;20231;-81
2022/09/18 13:34:25;;;;;;;6.35;2.42;;;15.00;99.90;;;;;;5076187;28;20295;-82
2022/09/18 13:37:18;;;;;;;4.55;2.53;;;15.10;99.90;;;;;;5078113;28;20234;-82
2022/09/18 13:40:27;;;;;;;6.18;2.97;;;14.90;99.90;;;;;;5064010;28;20333;-82
2022/09/18 13:43:33;;;;;;;6.40;2.80;;;14.70;99.90;;;;;;5062487;28;20224;-81
2022/09/18 13:46:36;;;;;;;4.28;3.45;;;14.70;99.90;;;;;;5076323;28;21076;-83
2022/09/18 13:49:28;;;;;;;6.50;3.40;;;14.90;99.90;;;;;;5075727;28;22000;-84
2022/09/18 13:52:41;;;;;;;7.60;3.47;;;14.90;99.90;;;;;;5074946;28;20223;-83
2022/09/18 13:55:48;;;;;;;4.47;2.97;;;14.90;99.90;;;;;;5077529;28;20295;-84
2022/09/18 13:58:51;;;;;;;4.88;3.33;;;14.90;99.90;;;;;;5077309;28;20215;-83
2022/09/18 14:01:59;;;;;;;6.88;3.10;;;14.80;99.90;;;;;;5078516;28;20371;-83
2022/09/18 14:05:27;;;;;;;6.05;3.38;;;14.80;99.90;;;;;;5076086;28;20254;-82
2022/09/18 14:08:43;;;;;;;5.63;3.75;;;14.70;99.90;;;;;;5077476;28;20922;-82
2022/09/18 14:11:32;;;;;;;7.05;4.18;;;14.70;99.90;;;;;;5049899;28;20227;-86
2022/09/18 14:14:25;;;;;;;4.35;3.85;;;14.60;99.90;;;;;;5076234;28;20235;-82
2022/09/18 14:17:15;;;;;;;7.47;4.80;;;14.50;99.90;;;;;;5077528;28;20270;-82
2022/09/18 14:20:17;;;;;;;5.53;4.30;;;14.60;99.90;;;;;;5080097;28;20233;-83
2022/09/18 14:23:45;;;;;;;6.00;4.35;;;14.50;99.90;;;;;;5082658;28;20266;-83
2022/09/18 14:26:56;;;;;;;7.53;4.13;;;14.50;99.90;;;;;;5078802;28;20245;-83
2022/09/18 14:29:48;;;;;;;4.75;4.10;;;14.50;99.90;;;;;;5067450;28;20273;-83
2022/09/18 14:32:37;;;;;;;7.88;4.22;;;14.30;99.90;;;;;;5069631;28;20234;-83
2022/09/18 14:35:40;;;;;;;5.88;4.38;;;14.30;99.90;;;;;;5079672;28;20331;-82
2022/09/18 14:38:34;;;;;;;9.55;4.65;;;14.30;99.90;;;;;;5081760;28;20226;-84
2022/09/18 14:41:32;;;;;;;6.13;4.55;;;14.40;99.90;;;;;;5068535;28;20222;-83
2022/09/18 14:44:22;;;;;;;8.60;4.55;;;14.40;99.90;;;;;;5080951;28;20223;-84
2022/09/18 14:47:21;;;;;;;7.30;5.10;;;14.30;99.90;;;;;;5079164;28;20223;-82
2022/09/18 14:50:27;;;;;;;6.25;4.68;;;14.20;99.90;;;;;;5078974;28;20278;-83
2022/09/18 14:53:22;;;;;;;6.53;4.70;;;14.30;99.90;;;;;;5056953;28;20227;-85
2022/09/18 14:56:15;;;;;;;6.95;5.05;;;14.10;99.90;;;;;;5067838;28;20349;-84
2022/09/18 14:59:06;;;;;;;8.65;5.35;;;14.00;99.90;;;;;;5064087;28;20254;-83
2022/09/18 15:02:09;;;;;;;8.23;7.25;;;14.00;99.90;;;;;;5066267;28;20227;-84
2022/09/18 15:05:09;;;;;;;6.85;5.53;;;13.80;99.90;;;;;;5066924;28;20289;-82
2022/09/18 15:08:02;;;;;;;7.30;5.88;;;13.90;99.90;;;;;;5063605;28;20247;-82
2022/09/18 15:10:53;;;;;;;7.88;5.90;;;13.90;99.90;;;;;;5065809;28;20224;-82
2022/09/18 15:13:42;;;;;;;8.52;6.10;;;13.90;99.90;;;;;;5053019;28;20281;-82